Silverhill, AL (36576)

9:58 PM CDT on August 23, 2016 (GMT -0500)
1st Street South | | Change Station

Elev 138 ft 30.54 °N, 87.75 °W | Updated 5 seconds ago

Clear
Clear
79.3 °F
Feels Like 84 °F
N
0.0
Wind Variable Wind from ESE
Gusts 0.0 mph

Today
High -- | Low -- °F
--% Chance of Precip.
Yesterday
High -- | Low -- °F
Precip. -- in
Pressure 30.15 in
Visibility 10.0 miles
Clouds Clear
Heat Index 84 °F
Dew Point 78 °F
Humidity 95%
Rainfall 0.00 in
Snow Depth Not available.
6:22 AM 7:23 PM
Waning Gibbous, 62% visible
METAR KCQF 240235Z AUTO 00000KT 10SM CLR 26/26 A3015 RMK AO2
Pressure 30.15 in
Visibility 10.0 miles
Clouds Clear
Heat Index 84 °F
Dew Point 78 °F
Humidity 95%
Rainfall 0.00 in
Snow Depth Not available.
6:22 AM 7:23 PM
Waning Gibbous, 62% visible
METAR KCQF 240235Z AUTO 00000KT 10SM CLR 26/26 A3015 RMK AO2

10-Day Weather Forecast

Almanac

Astronomy

Aug. 23, 2016 Rise Set
Actual Time
Civil Twilight
Nautical Twilight
Astronomical Twilight
Moon
Length of Visible Light
Length of Day
Tomorrow will be .
, % of the Moon is Illuminated

Today's Extremes

State Highs State Lows

Community

WunderPhotos

Upload Photos

1,934,533 photos uploaded!

WunderBlog® & News

Nearby

Air Quality

  Air Quality AQ Index Pollutant
Not available.

Snow Depth

Station Depth Elevation

Earthquake Activity

City Distance Mag. Time & Date
Minimum magnitude displayed is 2.5.

Coastal Water Temperatures

Place Temperature

Stations

Nearby Weather Stations

Station Location Temp. Windchill Dew Point Humidity Wind Precip. Elev Updated Type
                   

Watches & Warnings

There are currently no watches in effect.